sensor_id;sensor_type;location;lat;lon;timestamp;temperature;humidity
16643;DHT22;8435;52.184;5.406;2023-03-16T00:00:13;7.80;93.50
16643;DHT22;8435;52.184;5.406;2023-03-16T00:02:42;7.80;93.50
16643;DHT22;8435;52.184;5.406;2023-03-16T00:05:12;7.80;93.50
16643;DHT22;8435;52.184;5.406;2023-03-16T00:07:40;7.80;93.50
16643;DHT22;8435;52.184;5.406;2023-03-16T00:10:08;7.80;93.50
16643;DHT22;8435;52.184;5.406;2023-03-16T00:12:39;7.80;93.60
16643;DHT22;8435;52.184;5.406;2023-03-16T00:15:08;7.90;93.70
16643;DHT22;8435;52.184;5.406;2023-03-16T00:17:35;7.90;93.70
16643;DHT22;8435;52.184;5.406;2023-03-16T00:20:04;7.90;93.70
16643;DHT22;8435;52.184;5.406;2023-03-16T00:22:33;7.90;93.70
16643;DHT22;8435;52.184;5.406;2023-03-16T00:25:00;7.90;93.80
16643;DHT22;8435;52.184;5.406;2023-03-16T00:27:28;7.90;93.80
16643;DHT22;8435;52.184;5.406;2023-03-16T00:29:55;7.90;93.80
16643;DHT22;8435;52.184;5.406;2023-03-16T00:32:25;7.90;93.80
16643;DHT22;8435;52.184;5.406;2023-03-16T00:34:52;7.90;93.90
16643;DHT22;8435;52.184;5.406;2023-03-16T00:37:22;8.00;93.90
16643;DHT22;8435;52.184;5.406;2023-03-16T00:39:49;7.90;93.90
16643;DHT22;8435;52.184;5.406;2023-03-16T00:42:17;7.90;93.90
16643;DHT22;8435;52.184;5.406;2023-03-16T00:44:45;7.90;93.90
16643;DHT22;8435;52.184;5.406;2023-03-16T00:47:12;7.90;94.30
16643;DHT22;8435;52.184;5.406;2023-03-16T00:49:40;7.90;94.00
16643;DHT22;8435;52.184;5.406;2023-03-16T00:52:09;7.90;94.10
16643;DHT22;8435;52.184;5.406;2023-03-16T00:54:44;7.90;94.10
16643;DHT22;8435;52.184;5.406;2023-03-16T00:57:13;7.90;94.20
16643;DHT22;8435;52.184;5.406;2023-03-16T00:59:41;7.90;94.20
16643;DHT22;8435;52.184;5.406;2023-03-16T01:02:09;8.00;94.30
16643;DHT22;8435;52.184;5.406;2023-03-16T01:04:38;8.00;94.30
16643;DHT22;8435;52.184;5.406;2023-03-16T01:07:06;7.90;94.30
16643;DHT22;8435;52.184;5.406;2023-03-16T01:09:33;7.90;94.40
16643;DHT22;8435;52.184;5.406;2023-03-16T01:12:03;8.00;94.50
16643;DHT22;8435;52.184;5.406;2023-03-16T01:14:31;7.90;94.50
16643;DHT22;8435;52.184;5.406;2023-03-16T01:16:59;8.00;94.50
16643;DHT22;8435;52.184;5.406;2023-03-16T01:19:27;8.00;94.60
16643;DHT22;8435;52.184;5.406;2023-03-16T01:21:54;7.90;94.50
16643;DHT22;8435;52.184;5.406;2023-03-16T01:24:21;7.90;94.50
16643;DHT22;8435;52.184;5.406;2023-03-16T01:26:49;8.00;94.70
16643;DHT22;8435;52.184;5.406;2023-03-16T01:29:18;8.00;94.70
16643;DHT22;8435;52.184;5.406;2023-03-16T01:31:51;8.00;94.70
16643;DHT22;8435;52.184;5.406;2023-03-16T01:34:18;8.00;94.90
16643;DHT22;8435;52.184;5.406;2023-03-16T01:36:47;8.00;94.80
16643;DHT22;8435;52.184;5.406;2023-03-16T01:39:14;8.00;94.90
16643;DHT22;8435;52.184;5.406;2023-03-16T01:41:41;8.00;94.90
16643;DHT22;8435;52.184;5.406;2023-03-16T01:44:11;8.00;95.00
16643;DHT22;8435;52.184;5.406;2023-03-16T01:46:40;8.00;95.00
16643;DHT22;8435;52.184;5.406;2023-03-16T01:49:10;8.00;95.00
16643;DHT22;8435;52.184;5.406;2023-03-16T01:51:42;8.00;95.00
16643;DHT22;8435;52.184;5.406;2023-03-16T01:54:21;8.00;95.10
16643;DHT22;8435;52.184;5.406;2023-03-16T01:56:53;8.00;95.10
16643;DHT22;8435;52.184;5.406;2023-03-16T01:59:26;8.00;95.10
16643;DHT22;8435;52.184;5.406;2023-03-16T02:01:56;7.90;95.20
16643;DHT22;8435;52.184;5.406;2023-03-16T02:04:31;8.00;95.20
16643;DHT22;8435;52.184;5.406;2023-03-16T02:07:05;8.00;95.30
16643;DHT22;8435;52.184;5.406;2023-03-16T02:09:34;8.00;95.30
16643;DHT22;8435;52.184;5.406;2023-03-16T02:12:03;8.00;95.30
16643;DHT22;8435;52.184;5.406;2023-03-16T02:14:30;7.90;95.30
16643;DHT22;8435;52.184;5.406;2023-03-16T02:16:58;7.90;95.40
16643;DHT22;8435;52.184;5.406;2023-03-16T02:19:34;7.90;95.40
16643;DHT22;8435;52.184;5.406;2023-03-16T02:22:08;7.90;95.50
16643;DHT22;8435;52.184;5.406;2023-03-16T02:24:40;8.00;95.50
16643;DHT22;8435;52.184;5.406;2023-03-16T02:27:08;7.90;95.50
16643;DHT22;8435;52.184;5.406;2023-03-16T02:29:56;7.90;95.60
16643;DHT22;8435;52.184;5.406;2023-03-16T02:32:26;7.90;95.80
16643;DHT22;8435;52.184;5.406;2023-03-16T02:34:54;7.90;95.60
16643;DHT22;8435;52.184;5.406;2023-03-16T02:37:24;7.90;95.60
16643;DHT22;8435;52.184;5.406;2023-03-16T02:39:51;7.90;95.70
16643;DHT22;8435;52.184;5.406;2023-03-16T02:42:20;8.00;95.70
16643;DHT22;8435;52.184;5.406;2023-03-16T02:44:53;8.00;95.80
16643;DHT22;8435;52.184;5.406;2023-03-16T02:47:29;8.00;95.90
16643;DHT22;8435;52.184;5.406;2023-03-16T02:49:58;8.00;96.00
16643;DHT22;8435;52.184;5.406;2023-03-16T02:52:26;8.00;96.20
16643;DHT22;8435;52.184;5.406;2023-03-16T02:54:53;8.00;96.00
16643;DHT22;8435;52.184;5.406;2023-03-16T02:57:20;8.00;96.10
16643;DHT22;8435;52.184;5.406;2023-03-16T02:59:47;8.00;96.10
16643;DHT22;8435;52.184;5.406;2023-03-16T03:02:14;8.00;96.20
16643;DHT22;8435;52.184;5.406;2023-03-16T03:04:42;8.00;96.10
16643;DHT22;8435;52.184;5.406;2023-03-16T03:07:11;8.00;96.30
16643;DHT22;8435;52.184;5.406;2023-03-16T03:09:38;8.00;96.30
16643;DHT22;8435;52.184;5.406;2023-03-16T03:12:07;8.00;96.30
16643;DHT22;8435;52.184;5.406;2023-03-16T03:14:33;8.00;96.40
16643;DHT22;8435;52.184;5.406;2023-03-16T03:17:03;8.00;96.40
16643;DHT22;8435;52.184;5.406;2023-03-16T03:19:30;8.00;96.40
16643;DHT22;8435;52.184;5.406;2023-03-16T03:21:59;8.00;96.50
16643;DHT22;8435;52.184;5.406;2023-03-16T03:24:28;7.90;96.50
16643;DHT22;8435;52.184;5.406;2023-03-16T03:26:56;8.00;96.50
16643;DHT22;8435;52.184;5.406;2023-03-16T03:29:26;8.00;96.60
16643;DHT22;8435;52.184;5.406;2023-03-16T03:31:59;8.00;96.70
16643;DHT22;8435;52.184;5.406;2023-03-16T03:34:26;8.00;96.70
16643;DHT22;8435;52.184;5.406;2023-03-16T03:36:52;7.90;96.80
16643;DHT22;8435;52.184;5.406;2023-03-16T03:39:21;7.90;96.80
16643;DHT22;8435;52.184;5.406;2023-03-16T03:41:47;7.90;96.90
16643;DHT22;8435;52.184;5.406;2023-03-16T03:44:16;7.90;97.00
16643;DHT22;8435;52.184;5.406;2023-03-16T03:46:42;7.90;97.10
16643;DHT22;8435;52.184;5.406;2023-03-16T03:49:09;7.90;97.10
16643;DHT22;8435;52.184;5.406;2023-03-16T03:51:36;7.90;97.10
16643;DHT22;8435;52.184;5.406;2023-03-16T03:54:03;7.90;97.10
16643;DHT22;8435;52.184;5.406;2023-03-16T03:56:31;7.80;97.20
16643;DHT22;8435;52.184;5.406;2023-03-16T03:58:58;7.80;97.30
16643;DHT22;8435;52.184;5.406;2023-03-16T04:01:27;7.80;97.40
16643;DHT22;8435;52.184;5.406;2023-03-16T04:03:53;7.80;97.30
16643;DHT22;8435;52.184;5.406;2023-03-16T04:06:20;7.80;97.40
16643;DHT22;8435;52.184;5.406;2023-03-16T04:08:47;7.80;97.50
16643;DHT22;8435;52.184;5.406;2023-03-16T04:11:15;7.80;97.50
16643;DHT22;8435;52.184;5.406;2023-03-16T04:13:43;7.80;97.60
16643;DHT22;8435;52.184;5.406;2023-03-16T04:16:10;7.70;97.60
16643;DHT22;8435;52.184;5.406;2023-03-16T04:18:41;7.70;97.60
16643;DHT22;8435;52.184;5.406;2023-03-16T04:21:13;7.70;97.70
16643;DHT22;8435;52.184;5.406;2023-03-16T04:23:41;7.70;97.80
16643;DHT22;8435;52.184;5.406;2023-03-16T04:26:08;7.70;97.70
16643;DHT22;8435;52.184;5.406;2023-03-16T04:28:35;7.70;97.80
16643;DHT22;8435;52.184;5.406;2023-03-16T04:31:05;7.70;97.80
16643;DHT22;8435;52.184;5.406;2023-03-16T04:33:32;7.70;98.00
16643;DHT22;8435;52.184;5.406;2023-03-16T04:36:00;7.70;97.90
16643;DHT22;8435;52.184;5.406;2023-03-16T04:38:28;7.60;98.00
16643;DHT22;8435;52.184;5.406;2023-03-16T04:40:55;7.60;98.00
16643;DHT22;8435;52.184;5.406;2023-03-16T04:43:21;7.60;98.00
16643;DHT22;8435;52.184;5.406;2023-03-16T04:45:48;7.60;98.40
16643;DHT22;8435;52.184;5.406;2023-03-16T04:48:17;7.60;98.10
16643;DHT22;8435;52.184;5.406;2023-03-16T04:50:48;7.60;98.20
16643;DHT22;8435;52.184;5.406;2023-03-16T04:53:15;7.60;98.20
16643;DHT22;8435;52.184;5.406;2023-03-16T04:55:43;7.60;98.20
16643;DHT22;8435;52.184;5.406;2023-03-16T04:58:10;7.60;98.30
16643;DHT22;8435;52.184;5.406;2023-03-16T05:00:41;7.60;98.20
16643;DHT22;8435;52.184;5.406;2023-03-16T05:03:10;7.60;98.30
16643;DHT22;8435;52.184;5.406;2023-03-16T05:05:38;7.70;98.40
16643;DHT22;8435;52.184;5.406;2023-03-16T05:08:07;7.70;98.40
16643;DHT22;8435;52.184;5.406;2023-03-16T05:10:35;7.60;98.40
16643;DHT22;8435;52.184;5.406;2023-03-16T05:13:02;7.60;98.40
16643;DHT22;8435;52.184;5.406;2023-03-16T05:15:29;7.70;98.40
16643;DHT22;8435;52.184;5.406;2023-03-16T05:17:56;7.70;98.30
16643;DHT22;8435;52.184;5.406;2023-03-16T05:20:23;7.70;98.40
16643;DHT22;8435;52.184;5.406;2023-03-16T05:22:51;7.70;98.40
16643;DHT22;8435;52.184;5.406;2023-03-16T05:25:19;7.70;98.30
16643;DHT22;8435;52.184;5.406;2023-03-16T05:27:47;7.70;98.40
16643;DHT22;8435;52.184;5.406;2023-03-16T05:30:19;7.70;98.40
16643;DHT22;8435;52.184;5.406;2023-03-16T05:32:46;7.70;98.40
16643;DHT22;8435;52.184;5.406;2023-03-16T05:35:13;7.70;98.40
16643;DHT22;8435;52.184;5.406;2023-03-16T05:37:41;7.70;98.30
16643;DHT22;8435;52.184;5.406;2023-03-16T05:40:13;7.70;98.40
16643;DHT22;8435;52.184;5.406;2023-03-16T05:42:43;7.70;98.40
16643;DHT22;8435;52.184;5.406;2023-03-16T05:45:11;7.80;98.30
16643;DHT22;8435;52.184;5.406;2023-03-16T05:47:38;7.70;98.40
16643;DHT22;8435;52.184;5.406;2023-03-16T05:50:05;7.80;98.40
16643;DHT22;8435;52.184;5.406;2023-03-16T05:52:36;7.70;98.40
16643;DHT22;8435;52.184;5.406;2023-03-16T05:55:03;7.70;98.40
16643;DHT22;8435;52.184;5.406;2023-03-16T05:57:33;7.70;98.60
16643;DHT22;8435;52.184;5.406;2023-03-16T06:00:00;7.80;98.60
16643;DHT22;8435;52.184;5.406;2023-03-16T06:02:27;7.70;98.60
16643;DHT22;8435;52.184;5.406;2023-03-16T06:04:57;7.70;98.60
16643;DHT22;8435;52.184;5.406;2023-03-16T06:07:24;7.70;98.60
16643;DHT22;8435;52.184;5.406;2023-03-16T06:09:51;7.70;98.70
16643;DHT22;8435;52.184;5.406;2023-03-16T06:12:18;7.70;98.80
16643;DHT22;8435;52.184;5.406;2023-03-16T06:14:46;7.70;98.80
16643;DHT22;8435;52.184;5.406;2023-03-16T06:17:14;7.70;98.80
16643;DHT22;8435;52.184;5.406;2023-03-16T06:19:41;7.70;98.80
16643;DHT22;8435;52.184;5.406;2023-03-16T06:22:08;7.70;98.80
16643;DHT22;8435;52.184;5.406;2023-03-16T06:24:38;7.70;98.80
16643;DHT22;8435;52.184;5.406;2023-03-16T06:27:05;7.70;98.90
16643;DHT22;8435;52.184;5.406;2023-03-16T06:29:34;7.70;98.90
16643;DHT22;8435;52.184;5.406;2023-03-16T06:32:03;7.70;98.90
16643;DHT22;8435;52.184;5.406;2023-03-16T06:34:30;7.70;99.00
16643;DHT22;8435;52.184;5.406;2023-03-16T06:36:56;7.70;99.00
16643;DHT22;8435;52.184;5.406;2023-03-16T06:39:23;7.70;99.00
16643;DHT22;8435;52.184;5.406;2023-03-16T06:41:50;7.80;99.10
16643;DHT22;8435;52.184;5.406;2023-03-16T06:44:20;7.80;99.10
16643;DHT22;8435;52.184;5.406;2023-03-16T06:46:46;7.80;99.20
16643;DHT22;8435;52.184;5.406;2023-03-16T06:49:17;7.80;99.10
16643;DHT22;8435;52.184;5.406;2023-03-16T06:51:44;7.90;99.20
16643;DHT22;8435;52.184;5.406;2023-03-16T06:54:11;7.90;99.10
16643;DHT22;8435;52.184;5.406;2023-03-16T06:56:39;7.90;99.20
16643;DHT22;8435;52.184;5.406;2023-03-16T06:59:06;7.90;99.20
16643;DHT22;8435;52.184;5.406;2023-03-16T07:01:33;8.00;99.20
16643;DHT22;8435;52.184;5.406;2023-03-16T07:04:00;8.00;99.20
16643;DHT22;8435;52.184;5.406;2023-03-16T07:06:28;8.00;99.30
16643;DHT22;8435;52.184;5.406;2023-03-16T07:08:54;8.00;99.40
16643;DHT22;8435;52.184;5.406;2023-03-16T07:11:25;8.10;99.30
16643;DHT22;8435;52.184;5.406;2023-03-16T07:13:52;8.10;99.40
16643;DHT22;8435;52.184;5.406;2023-03-16T07:16:19;8.10;99.30
16643;DHT22;8435;52.184;5.406;2023-03-16T07:18:46;8.20;99.40
16643;DHT22;8435;52.184;5.406;2023-03-16T07:21:13;8.20;99.40
16643;DHT22;8435;52.184;5.406;2023-03-16T07:23:41;8.30;99.40
16643;DHT22;8435;52.184;5.406;2023-03-16T07:26:09;8.30;99.40
16643;DHT22;8435;52.184;5.406;2023-03-16T07:28:36;8.40;99.40
16643;DHT22;8435;52.184;5.406;2023-03-16T07:31:03;8.40;99.50
16643;DHT22;8435;52.184;5.406;2023-03-16T07:33:30;8.40;99.30
16643;DHT22;8435;52.184;5.406;2023-03-16T07:35:59;8.40;99.20
16643;DHT22;8435;52.184;5.406;2023-03-16T07:38:28;8.40;99.20
16643;DHT22;8435;52.184;5.406;2023-03-16T07:40:59;8.40;99.30
16643;DHT22;8435;52.184;5.406;2023-03-16T07:43:26;8.50;99.30
16643;DHT22;8435;52.184;5.406;2023-03-16T07:45:53;8.40;99.10
16643;DHT22;8435;52.184;5.406;2023-03-16T07:48:20;8.50;99.10
16643;DHT22;8435;52.184;5.406;2023-03-16T07:50:48;8.50;99.10
16643;DHT22;8435;52.184;5.406;2023-03-16T07:53:16;8.50;99.00
16643;DHT22;8435;52.184;5.406;2023-03-16T07:55:43;8.50;99.00
16643;DHT22;8435;52.184;5.406;2023-03-16T07:58:12;8.50;99.00
16643;DHT22;8435;52.184;5.406;2023-03-16T08:00:39;8.50;99.10
16643;DHT22;8435;52.184;5.406;2023-03-16T08:03:07;8.50;99.10
16643;DHT22;8435;52.184;5.406;2023-03-16T08:05:33;8.50;99.10
16643;DHT22;8435;52.184;5.406;2023-03-16T08:08:00;8.40;99.10
16643;DHT22;8435;52.184;5.406;2023-03-16T08:10:28;8.50;99.10
16643;DHT22;8435;52.184;5.406;2023-03-16T08:12:55;8.50;99.20
16643;DHT22;8435;52.184;5.406;2023-03-16T08:15:23;8.50;99.30
16643;DHT22;8435;52.184;5.406;2023-03-16T08:17:49;8.50;99.40
16643;DHT22;8435;52.184;5.406;2023-03-16T08:20:17;8.50;99.50
16643;DHT22;8435;52.184;5.406;2023-03-16T08:22:44;8.60;99.60
16643;DHT22;8435;52.184;5.406;2023-03-16T08:25:12;8.60;99.70
16643;DHT22;8435;52.184;5.406;2023-03-16T08:27:39;8.70;99.70
16643;DHT22;8435;52.184;5.406;2023-03-16T08:30:09;8.80;99.60
16643;DHT22;8435;52.184;5.406;2023-03-16T08:32:38;8.80;99.60
16643;DHT22;8435;52.184;5.406;2023-03-16T08:35:10;8.90;99.50
16643;DHT22;8435;52.184;5.406;2023-03-16T08:37:39;9.00;99.30
16643;DHT22;8435;52.184;5.406;2023-03-16T08:40:11;9.10;99.30
16643;DHT22;8435;52.184;5.406;2023-03-16T08:42:40;9.10;99.10
16643;DHT22;8435;52.184;5.406;2023-03-16T08:45:10;9.10;99.10
16643;DHT22;8435;52.184;5.406;2023-03-16T08:47:38;9.20;99.00
16643;DHT22;8435;52.184;5.406;2023-03-16T08:50:06;9.20;98.90
16643;DHT22;8435;52.184;5.406;2023-03-16T08:52:33;9.30;98.90
16643;DHT22;8435;52.184;5.406;2023-03-16T08:55:01;9.30;98.80
16643;DHT22;8435;52.184;5.406;2023-03-16T08:57:29;9.40;98.70
16643;DHT22;8435;52.184;5.406;2023-03-16T08:59:57;9.40;98.70
16643;DHT22;8435;52.184;5.406;2023-03-16T09:02:24;9.50;98.60
16643;DHT22;8435;52.184;5.406;2023-03-16T09:04:52;9.50;98.60
16643;DHT22;8435;52.184;5.406;2023-03-16T09:07:20;9.50;98.40
16643;DHT22;8435;52.184;5.406;2023-03-16T09:09:47;9.50;98.40
16643;DHT22;8435;52.184;5.406;2023-03-16T09:12:14;9.60;98.30
16643;DHT22;8435;52.184;5.406;2023-03-16T09:14:42;9.50;98.30
16643;DHT22;8435;52.184;5.406;2023-03-16T09:17:10;9.70;98.30
16643;DHT22;8435;52.184;5.406;2023-03-16T09:19:37;9.70;98.20
16643;DHT22;8435;52.184;5.406;2023-03-16T09:22:06;9.80;98.20
16643;DHT22;8435;52.184;5.406;2023-03-16T09:24:33;9.80;98.20
16643;DHT22;8435;52.184;5.406;2023-03-16T09:27:07;9.80;98.10
16643;DHT22;8435;52.184;5.406;2023-03-16T09:29:33;9.80;97.80
16643;DHT22;8435;52.184;5.406;2023-03-16T09:32:01;10.00;97.90
16643;DHT22;8435;52.184;5.406;2023-03-16T09:34:28;10.00;97.80
16643;DHT22;8435;52.184;5.406;2023-03-16T09:36:55;10.00;97.70
16643;DHT22;8435;52.184;5.406;2023-03-16T09:39:23;10.10;97.60
16643;DHT22;8435;52.184;5.406;2023-03-16T09:41:54;10.10;97.60
16643;DHT22;8435;52.184;5.406;2023-03-16T09:44:35;10.10;97.50
16643;DHT22;8435;52.184;5.406;2023-03-16T09:47:06;10.10;97.50
16643;DHT22;8435;52.184;5.406;2023-03-16T09:49:38;10.10;97.50
16643;DHT22;8435;52.184;5.406;2023-03-16T09:52:15;10.10;97.40
16643;DHT22;8435;52.184;5.406;2023-03-16T09:54:49;10.10;97.40
16643;DHT22;8435;52.184;5.406;2023-03-16T09:57:24;10.10;97.30
16643;DHT22;8435;52.184;5.406;2023-03-16T09:59:59;10.20;97.20
16643;DHT22;8435;52.184;5.406;2023-03-16T10:02:43;10.20;97.30
16643;DHT22;8435;52.184;5.406;2023-03-16T10:05:13;10.20;97.30
16643;DHT22;8435;52.184;5.406;2023-03-16T10:07:46;10.30;97.20
16643;DHT22;8435;52.184;5.406;2023-03-16T10:10:24;10.40;97.20
16643;DHT22;8435;52.184;5.406;2023-03-16T10:12:53;10.40;97.40
16643;DHT22;8435;52.184;5.406;2023-03-16T10:15:26;10.50;97.70
16643;DHT22;8435;52.184;5.406;2023-03-16T10:17:57;10.60;97.40
16643;DHT22;8435;52.184;5.406;2023-03-16T10:20:27;10.80;97.20
16643;DHT22;8435;52.184;5.406;2023-03-16T10:22:58;10.90;97.10
16643;DHT22;8435;52.184;5.406;2023-03-16T10:25:31;11.00;97.00
16643;DHT22;8435;52.184;5.406;2023-03-16T10:28:00;11.10;96.40
16643;DHT22;8435;52.184;5.406;2023-03-16T10:30:30;11.20;96.40
16643;DHT22;8435;52.184;5.406;2023-03-16T10:33:02;11.30;96.20
16643;DHT22;8435;52.184;5.406;2023-03-16T10:35:37;11.30;96.20
16643;DHT22;8435;52.184;5.406;2023-03-16T10:38:26;11.40;96.10
16643;DHT22;8435;52.184;5.406;2023-03-16T10:40:54;11.50;95.90
16643;DHT22;8435;52.184;5.406;2023-03-16T10:43:24;11.60;95.90
16643;DHT22;8435;52.184;5.406;2023-03-16T10:45:57;11.70;96.00
16643;DHT22;8435;52.184;5.406;2023-03-16T10:48:25;11.80;95.80
16643;DHT22;8435;52.184;5.406;2023-03-16T10:50:54;11.80;95.60
16643;DHT22;8435;52.184;5.406;2023-03-16T10:53:25;11.90;95.60
16643;DHT22;8435;52.184;5.406;2023-03-16T10:55:58;12.00;95.40
16643;DHT22;8435;52.184;5.406;2023-03-16T10:58:29;12.10;95.20
16643;DHT22;8435;52.184;5.406;2023-03-16T11:00:56;12.10;94.90
16643;DHT22;8435;52.184;5.406;2023-03-16T11:03:27;12.20;95.00
16643;DHT22;8435;52.184;5.406;2023-03-16T11:05:58;12.30;94.90
16643;DHT22;8435;52.184;5.406;2023-03-16T11:08:29;12.30;94.50
16643;DHT22;8435;52.184;5.406;2023-03-16T11:10:59;12.40;94.70
16643;DHT22;8435;52.184;5.406;2023-03-16T11:13:31;12.50;94.70
16643;DHT22;8435;52.184;5.406;2023-03-16T11:16:02;12.60;94.10
16643;DHT22;8435;52.184;5.406;2023-03-16T11:18:34;12.60;94.00
16643;DHT22;8435;52.184;5.406;2023-03-16T11:21:10;12.70;94.10
16643;DHT22;8435;52.184;5.406;2023-03-16T11:23:42;12.70;94.00
16643;DHT22;8435;52.184;5.406;2023-03-16T11:26:18;12.80;93.90
16643;DHT22;8435;52.184;5.406;2023-03-16T11:28:51;12.80;93.50
16643;DHT22;8435;52.184;5.406;2023-03-16T11:31:32;12.90;93.60
16643;DHT22;8435;52.184;5.406;2023-03-16T11:34:12;13.00;93.50
16643;DHT22;8435;52.184;5.406;2023-03-16T11:36:46;13.00;93.20
16643;DHT22;8435;52.184;5.406;2023-03-16T11:42:22;13.10;93.00
16643;DHT22;8435;52.184;5.406;2023-03-16T11:44:56;13.20;92.70
16643;DHT22;8435;52.184;5.406;2023-03-16T11:47:42;13.20;92.80
16643;DHT22;8435;52.184;5.406;2023-03-16T11:50:18;13.20;92.70
16643;DHT22;8435;52.184;5.406;2023-03-16T11:52:58;13.30;92.90
16643;DHT22;8435;52.184;5.406;2023-03-16T11:55:37;13.30;92.10
16643;DHT22;8435;52.184;5.406;2023-03-16T11:58:30;13.40;92.30
16643;DHT22;8435;52.184;5.406;2023-03-16T12:01:07;13.40;91.90
16643;DHT22;8435;52.184;5.406;2023-03-16T12:04:10;13.50;92.40
16643;DHT22;8435;52.184;5.406;2023-03-16T12:06:52;13.50;92.10
16643;DHT22;8435;52.184;5.406;2023-03-16T12:10:01;13.60;91.90
16643;DHT22;8435;52.184;5.406;2023-03-16T12:12:39;13.70;91.80
16643;DHT22;8435;52.184;5.406;2023-03-16T12:15:30;13.80;91.90
16643;DHT22;8435;52.184;5.406;2023-03-16T12:18:01;13.80;91.30
16643;DHT22;8435;52.184;5.406;2023-03-16T12:20:33;13.80;91.50
16643;DHT22;8435;52.184;5.406;2023-03-16T12:23:07;13.90;91.40
16643;DHT22;8435;52.184;5.406;2023-03-16T12:25:39;14.00;91.40
16643;DHT22;8435;52.184;5.406;2023-03-16T12:28:13;14.10;91.30
16643;DHT22;8435;52.184;5.406;2023-03-16T12:30:49;14.10;91.20
16643;DHT22;8435;52.184;5.406;2023-03-16T12:33:28;14.20;91.20
16643;DHT22;8435;52.184;5.406;2023-03-16T12:36:06;14.30;90.80
16643;DHT22;8435;52.184;5.406;2023-03-16T12:38:42;14.40;90.80
16643;DHT22;8435;52.184;5.406;2023-03-16T12:41:18;14.50;90.60
16643;DHT22;8435;52.184;5.406;2023-03-16T12:43:59;14.50;90.40
16643;DHT22;8435;52.184;5.406;2023-03-16T12:46:38;14.50;90.00
16643;DHT22;8435;52.184;5.406;2023-03-16T12:49:08;14.60;90.10
16643;DHT22;8435;52.184;5.406;2023-03-16T12:51:37;14.70;90.30
16643;DHT22;8435;52.184;5.406;2023-03-16T12:54:05;14.80;90.10
16643;DHT22;8435;52.184;5.406;2023-03-16T12:56:35;14.90;90.10
16643;DHT22;8435;52.184;5.406;2023-03-16T12:59:03;14.90;88.50
16643;DHT22;8435;52.184;5.406;2023-03-16T13:01:41;15.00;89.10
16643;DHT22;8435;52.184;5.406;2023-03-16T13:04:11;15.10;88.30
16643;DHT22;8435;52.184;5.406;2023-03-16T13:06:43;15.10;87.80
16643;DHT22;8435;52.184;5.406;2023-03-16T13:09:16;15.30;88.00
16643;DHT22;8435;52.184;5.406;2023-03-16T13:11:46;15.30;87.60
16643;DHT22;8435;52.184;5.406;2023-03-16T13:14:29;15.40;87.60
16643;DHT22;8435;52.184;5.406;2023-03-16T13:17:05;15.40;87.10
16643;DHT22;8435;52.184;5.406;2023-03-16T13:19:32;15.40;85.80
16643;DHT22;8435;52.184;5.406;2023-03-16T13:22:19;15.50;86.90
16643;DHT22;8435;52.184;5.406;2023-03-16T13:24:52;15.50;86.10
16643;DHT22;8435;52.184;5.406;2023-03-16T13:27:22;15.50;85.40
16643;DHT22;8435;52.184;5.406;2023-03-16T13:29:53;15.60;84.50
16643;DHT22;8435;52.184;5.406;2023-03-16T13:32:22;15.60;84.30
16643;DHT22;8435;52.184;5.406;2023-03-16T13:34:55;15.60;82.30
16643;DHT22;8435;52.184;5.406;2023-03-16T13:37:23;15.60;82.30
16643;DHT22;8435;52.184;5.406;2023-03-16T13:39:56;15.60;83.00
16643;DHT22;8435;52.184;5.406;2023-03-16T13:42:25;15.60;83.00
16643;DHT22;8435;52.184;5.406;2023-03-16T13:44:55;15.70;82.80
16643;DHT22;8435;52.184;5.406;2023-03-16T13:47:25;15.70;82.40
16643;DHT22;8435;52.184;5.406;2023-03-16T13:49:55;15.70;80.90
16643;DHT22;8435;52.184;5.406;2023-03-16T13:52:25;15.70;80.80
16643;DHT22;8435;52.184;5.406;2023-03-16T13:54:54;15.80;81.20
16643;DHT22;8435;52.184;5.406;2023-03-16T13:57:24;15.80;81.80
16643;DHT22;8435;52.184;5.406;2023-03-16T14:00:01;15.80;80.60
16643;DHT22;8435;52.184;5.406;2023-03-16T14:02:39;15.80;79.50
16643;DHT22;8435;52.184;5.406;2023-03-16T14:05:10;15.80;80.50
16643;DHT22;8435;52.184;5.406;2023-03-16T14:07:37;15.90;81.00
16643;DHT22;8435;52.184;5.406;2023-03-16T14:10:09;15.90;81.70
16643;DHT22;8435;52.184;5.406;2023-03-16T14:12:36;15.90;81.20
16643;DHT22;8435;52.184;5.406;2023-03-16T14:15:05;16.00;81.40
16643;DHT22;8435;52.184;5.406;2023-03-16T14:17:37;16.00;80.70
16643;DHT22;8435;52.184;5.406;2023-03-16T14:20:14;16.10;79.70
16643;DHT22;8435;52.184;5.406;2023-03-16T14:22:44;16.10;79.40
16643;DHT22;8435;52.184;5.406;2023-03-16T14:25:18;16.20;79.70
16643;DHT22;8435;52.184;5.406;2023-03-16T14:27:46;16.20;78.20
16643;DHT22;8435;52.184;5.406;2023-03-16T14:30:16;16.20;79.20
16643;DHT22;8435;52.184;5.406;2023-03-16T14:32:55;16.20;77.70
16643;DHT22;8435;52.184;5.406;2023-03-16T14:35:25;16.30;76.50
16643;DHT22;8435;52.184;5.406;2023-03-16T14:37:52;16.30;77.90
16643;DHT22;8435;52.184;5.406;2023-03-16T14:40:24;16.30;78.10
16643;DHT22;8435;52.184;5.406;2023-03-16T14:42:52;16.30;78.10
16643;DHT22;8435;52.184;5.406;2023-03-16T14:45:20;16.30;77.50
16643;DHT22;8435;52.184;5.406;2023-03-16T14:47:49;16.30;77.30
16643;DHT22;8435;52.184;5.406;2023-03-16T14:50:22;16.20;77.40
16643;DHT22;8435;52.184;5.406;2023-03-16T14:52:53;16.30;76.80
16643;DHT22;8435;52.184;5.406;2023-03-16T14:55:20;16.30;76.70
16643;DHT22;8435;52.184;5.406;2023-03-16T14:57:47;16.30;76.00
16643;DHT22;8435;52.184;5.406;2023-03-16T15:00:19;16.20;75.90
16643;DHT22;8435;52.184;5.406;2023-03-16T15:02:59;16.20;75.60
16643;DHT22;8435;52.184;5.406;2023-03-16T15:05:33;16.20;74.70
16643;DHT22;8435;52.184;5.406;2023-03-16T15:08:02;16.10;74.70
16643;DHT22;8435;52.184;5.406;2023-03-16T15:10:31;16.10;75.30
16643;DHT22;8435;52.184;5.406;2023-03-16T15:13:00;16.10;75.00
16643;DHT22;8435;52.184;5.406;2023-03-16T15:15:37;16.00;74.60
16643;DHT22;8435;52.184;5.406;2023-03-16T15:18:04;16.00;75.10
16643;DHT22;8435;52.184;5.406;2023-03-16T15:20:37;16.00;75.00
16643;DHT22;8435;52.184;5.406;2023-03-16T15:23:04;15.90;75.00
16643;DHT22;8435;52.184;5.406;2023-03-16T15:25:34;15.90;74.90
16643;DHT22;8435;52.184;5.406;2023-03-16T15:28:02;15.80;75.20
16643;DHT22;8435;52.184;5.406;2023-03-16T15:30:30;15.80;75.50
16643;DHT22;8435;52.184;5.406;2023-03-16T15:32:57;15.80;75.20
16643;DHT22;8435;52.184;5.406;2023-03-16T15:35:24;15.80;75.30
16643;DHT22;8435;52.184;5.406;2023-03-16T15:37:54;15.80;75.70
16643;DHT22;8435;52.184;5.406;2023-03-16T15:40:22;15.80;75.30
16643;DHT22;8435;52.184;5.406;2023-03-16T15:42:50;15.80;75.60
16643;DHT22;8435;52.184;5.406;2023-03-16T15:45:18;15.80;76.20
16643;DHT22;8435;52.184;5.406;2023-03-16T15:47:46;15.90;76.00
16643;DHT22;8435;52.184;5.406;2023-03-16T15:50:14;15.90;75.80
16643;DHT22;8435;52.184;5.406;2023-03-16T15:52:47;15.90;75.70
16643;DHT22;8435;52.184;5.406;2023-03-16T15:55:20;15.90;75.30
16643;DHT22;8435;52.184;5.406;2023-03-16T15:57:55;15.90;75.10
16643;DHT22;8435;52.184;5.406;2023-03-16T16:00:28;16.00;74.20
16643;DHT22;8435;52.184;5.406;2023-03-16T16:03:00;16.00;74.70
16643;DHT22;8435;52.184;5.406;2023-03-16T16:05:28;16.00;74.60
16643;DHT22;8435;52.184;5.406;2023-03-16T16:07:55;16.00;74.70
16643;DHT22;8435;52.184;5.406;2023-03-16T16:10:24;16.00;74.60
16643;DHT22;8435;52.184;5.406;2023-03-16T16:12:53;16.10;73.80
16643;DHT22;8435;52.184;5.406;2023-03-16T16:15:22;16.10;74.00